createdAt,value
2018-01-31T01:52:20.764Z,97827.37
2018-01-31T01:54:08.641Z,97828.17
2018-01-31T01:56:36.152Z,97826.99
2018-01-31T01:59:03.694Z,97825.90
2018-01-31T02:01:31.201Z,97822.59
2018-01-31T02:03:58.770Z,97806.45
2018-01-31T02:06:26.289Z,97802.62
2018-01-31T02:08:53.800Z,97808.04
2018-01-31T02:11:21.340Z,97800.38
2018-01-31T02:13:48.845Z,97788.51
2018-01-31T02:16:16.679Z,97789.22
2018-01-31T02:18:44.193Z,97784.68
2018-01-31T02:21:11.700Z,97788.80
2018-01-31T02:23:39.231Z,97784.72
2018-01-31T02:26:06.741Z,97781.27
2018-01-31T02:28:34.576Z,97774.34
2018-01-31T02:31:02.096Z,97772.59
2018-01-31T02:33:29.604Z,97763.73
2018-01-31T02:35:57.140Z,97762.09
2018-01-31T02:38:36.636Z,97752.08
2018-01-31T02:41:04.189Z,97743.39
2018-01-31T02:43:31.702Z,97746.70
2018-01-31T02:45:59.477Z,97739.49
2018-01-31T02:48:26.982Z,97738.34
2018-01-31T02:51:07.053Z,97736.13
2018-01-31T02:53:34.565Z,97728.52
2018-01-31T02:56:02.069Z,97726.89
2018-01-31T02:58:29.604Z,97732.52
2018-01-31T03:00:57.115Z,97720.74
2018-01-31T03:03:24.663Z,97724.95
2018-01-31T03:05:52.181Z,97711.67
2018-01-31T03:08:19.686Z,97702.53
2018-01-31T03:10:47.221Z,97701.89
2018-01-31T03:13:14.728Z,97695.76
2018-01-31T03:15:42.284Z,97688.41
2018-01-31T03:18:09.793Z,97682.91
2018-01-31T03:20:37.304Z,97685.66
2018-01-31T03:23:04.841Z,97682.75
2018-01-31T03:25:32.843Z,97684.77
2018-01-31T03:28:00.392Z,97679.72
2018-01-31T03:30:27.901Z,97678.69
2018-01-31T03:32:55.413Z,97673.23
2018-01-31T03:35:22.941Z,97675.23
2018-01-31T03:37:50.444Z,97677.02
2018-01-31T03:40:18.280Z,97675.52
2018-01-31T03:42:45.788Z,97672.55
2018-01-31T03:45:13.327Z,97672.67
2018-01-31T03:47:40.869Z,97669.67
2018-01-31T03:50:08.377Z,97672.53
2018-01-31T03:52:36.268Z,97660.38
2018-01-31T03:55:03.827Z,97664.02
2018-01-31T03:57:31.336Z,97663.27
2018-01-31T03:59:58.868Z,97648.19
2018-01-31T04:02:26.380Z,97651.56
2018-01-31T04:04:53.924Z,97651.98
2018-01-31T04:07:21.456Z,97650.05
2018-01-31T04:09:48.969Z,97639.72
2018-01-31T04:12:16.496Z,97629.95
2018-01-31T04:14:44.006Z,97634.97
2018-01-31T04:17:11.757Z,97639.55
2018-01-31T04:19:39.264Z,97633.50
2018-01-31T04:22:06.773Z,97634.34
2018-01-31T04:24:34.305Z,97621.96
2018-01-31T04:27:01.812Z,97619.02
2018-01-31T04:29:29.346Z,97616.02
2018-01-31T04:31:56.856Z,97616.37
2018-01-31T04:34:24.573Z,97605.17
2018-01-31T04:36:52.107Z,97609.23
2018-01-31T04:39:19.612Z,97605.72
2018-01-31T04:41:47.140Z,97603.29
2018-01-31T04:44:14.649Z,97594.89
2018-01-31T04:46:42.468Z,97590.31
2018-01-31T04:49:09.973Z,97590.11
2018-01-31T04:51:37.485Z,97589.13
2018-01-31T04:54:05.036Z,97586.10
2018-01-31T04:56:32.548Z,97582.88
2018-01-31T04:59:00.104Z,97585.06
2018-01-31T05:01:27.608Z,97584.18
2018-01-31T05:03:55.121Z,97582.39
2018-01-31T05:06:22.649Z,97579.44
2018-01-31T05:08:50.157Z,97573.66
2018-01-31T05:11:18.044Z,97566.00
2018-01-31T05:13:45.600Z,97566.78
2018-01-31T05:16:13.109Z,97562.45
2018-01-31T05:18:44.572Z,97553.44
2018-01-31T05:21:12.077Z,97557.23
2018-01-31T05:23:40.699Z,97547.30
2018-01-31T05:26:08.204Z,97546.30
2018-01-31T05:28:35.709Z,97543.30
2018-01-31T05:31:03.240Z,97545.69
2018-01-31T05:33:30.749Z,97536.36
2018-01-31T05:35:58.461Z,97534.03
2018-01-31T05:38:25.970Z,97535.77
2018-01-31T05:40:53.473Z,97531.42
2018-01-31T05:43:21.025Z,97532.41
2018-01-31T05:45:48.536Z,97525.82
2018-01-31T05:48:16.261Z,97519.84
2018-01-31T05:50:43.773Z,97519.00
2018-01-31T05:53:11.629Z,97524.55
2018-01-31T05:55:40.117Z,97513.00
2018-01-31T05:58:07.626Z,97519.42
2018-01-31T06:00:35.172Z,97509.55
2018-01-31T06:03:02.676Z,97501.39
2018-01-31T06:05:30.189Z,97497.52
2018-01-31T06:08:04.245Z,97492.50
2018-01-31T06:10:31.756Z,97499.22
2018-01-31T06:12:59.309Z,97491.87
2018-01-31T06:15:31.632Z,97491.20
2018-01-31T06:17:59.173Z,97491.33
2018-01-31T06:20:26.685Z,97481.52
2018-01-31T06:22:54.192Z,97483.57
2018-01-31T06:25:21.730Z,97487.20
2018-01-31T06:27:49.242Z,97491.66
2018-01-31T06:30:17.294Z,97483.95
2018-01-31T06:32:44.828Z,97486.00
2018-01-31T06:35:12.336Z,97488.63
2018-01-31T06:37:39.857Z,97485.47
2018-01-31T06:40:07.388Z,97480.58
2018-01-31T06:42:34.932Z,97477.97
2018-01-31T06:45:02.437Z,97471.84
2018-01-31T06:47:29.964Z,97480.27
2018-01-31T06:49:57.468Z,97473.90
2018-01-31T06:52:24.973Z,97470.39
2018-01-31T06:54:52.505Z,97455.85
2018-01-31T06:57:20.013Z,97449.28
2018-01-31T06:59:47.517Z,97447.04
2018-01-31T07:02:15.052Z,97427.63
2018-01-31T07:04:42.556Z,97433.52
2018-01-31T07:07:10.062Z,97433.68
2018-01-31T07:09:37.841Z,97423.00
2018-01-31T07:12:05.344Z,97436.01
2018-01-31T07:14:32.865Z,97423.62
2018-01-31T07:17:15.240Z,97436.72
2018-01-31T07:19:42.744Z,97440.59
2018-01-31T07:22:10.289Z,97431.98
2018-01-31T07:24:37.807Z,97417.59
2018-01-31T07:27:05.312Z,97416.65
2018-01-31T07:29:32.845Z,97420.35
2018-01-31T07:32:00.356Z,97411.11
2018-01-31T07:34:28.238Z,97409.16
2018-01-31T07:36:55.740Z,97396.73
2018-01-31T07:39:23.249Z,97385.34
2018-01-31T07:41:50.801Z,97382.08
2018-01-31T07:44:18.317Z,97380.11
2018-01-31T07:46:46.029Z,97388.16
2018-01-31T07:49:13.604Z,97388.23
2018-01-31T07:51:41.081Z,97383.50
2018-01-31T07:54:08.612Z,97390.32
2018-01-31T07:56:36.127Z,97385.83
2018-01-31T07:59:04.040Z,97391.80
2018-01-31T08:01:31.545Z,97392.81
2018-01-31T08:03:59.061Z,97396.53
2018-01-31T08:06:27.470Z,97384.61
2018-01-31T08:08:54.977Z,97377.66
2018-01-31T08:11:22.604Z,97366.94
2018-01-31T08:13:50.140Z,97365.70
2018-01-31T08:16:17.645Z,97363.25
2018-01-31T08:18:45.200Z,97355.46
2018-01-31T08:21:12.724Z,97360.89
2018-01-31T08:23:40.553Z,97356.16
2018-01-31T08:26:11.407Z,97334.59
2018-01-31T08:28:38.917Z,97332.33
2018-01-31T08:31:06.452Z,97312.48
2018-01-31T08:33:34.048Z,97317.89
2018-01-31T08:36:01.619Z,97308.05
2018-01-31T08:38:29.424Z,97313.02
2018-01-31T08:40:57.892Z,97299.57
2018-01-31T08:43:25.428Z,97303.54
2018-01-31T08:45:52.936Z,97297.03
2018-01-31T08:48:20.640Z,97304.45
2018-01-31T08:50:48.165Z,97306.45
2018-01-31T08:53:15.676Z,97293.55
2018-01-31T08:55:43.209Z,97292.18
2018-01-31T08:58:10.723Z,97269.45
2018-01-31T09:00:38.282Z,97265.17
2018-01-31T09:03:05.796Z,97268.09
2018-01-31T09:05:33.308Z,97259.22
2018-01-31T09:08:00.852Z,97249.80
2018-01-31T09:10:28.369Z,97248.63
2018-01-31T09:12:56.231Z,97241.23
2018-01-31T09:15:24.668Z,97248.84
2018-01-31T09:17:52.187Z,97246.91
2018-01-31T09:20:19.734Z,97250.45
2018-01-31T09:22:47.245Z,97252.04
2018-01-31T09:25:14.953Z,97244.23
2018-01-31T09:27:42.476Z,97242.54
2018-01-31T09:30:09.993Z,97240.22
2018-01-31T09:32:37.528Z,97235.80
2018-01-31T09:35:05.044Z,97232.39
2018-01-31T09:37:32.604Z,97227.06
2018-01-31T09:40:00.123Z,97218.92
2018-01-31T09:42:27.636Z,97215.54
2018-01-31T09:44:55.387Z,97220.98
2018-01-31T09:47:22.905Z,97214.73
2018-01-31T09:49:50.449Z,97207.12
2018-01-31T09:52:17.957Z,97208.02
2018-01-31T09:54:45.472Z,97210.70
2018-01-31T09:57:13.023Z,97199.22
2018-01-31T09:59:40.532Z,97193.31
2018-01-31T10:02:08.086Z,97175.59
2018-01-31T10:04:35.604Z,97170.76
2018-01-31T10:07:03.116Z,97178.76
2018-01-31T10:09:30.656Z,97179.51
2018-01-31T10:11:58.173Z,97180.30
2018-01-31T10:14:25.717Z,97173.09
2018-01-31T10:16:53.228Z,97167.47
2018-01-31T10:19:20.740Z,97164.28
2018-01-31T10:21:48.322Z,97167.97
2018-01-31T10:24:15.836Z,97163.14
2018-01-31T10:26:43.768Z,97158.39
2018-01-31T10:29:11.284Z,97150.15
2018-01-31T10:31:38.796Z,97139.80
2018-01-31T10:34:06.336Z,97138.05
2018-01-31T10:36:33.853Z,97130.55
2018-01-31T10:39:01.425Z,97121.77
2018-01-31T10:41:28.985Z,97118.28
2018-01-31T10:43:56.493Z,97109.65
2018-01-31T10:46:24.041Z,97101.54
2018-01-31T10:48:51.592Z,97098.45
2018-01-31T10:51:19.124Z,97093.63
2018-01-31T10:58:41.758Z,97066.92
2018-01-31T11:01:09.276Z,97063.52
2018-01-31T11:03:37.008Z,97052.91
2018-01-31T11:06:04.524Z,97046.95
2018-01-31T11:08:32.040Z,97038.75
2018-01-31T11:10:59.584Z,97039.55
2018-01-31T11:13:27.105Z,97036.08
2018-01-31T11:15:54.669Z,97033.70
2018-01-31T11:18:22.185Z,97022.13
2018-01-31T11:20:49.704Z,97008.02
2018-01-31T11:23:17.257Z,97015.08
2018-01-31T11:25:44.789Z,97011.88
2018-01-31T11:28:13.243Z,97011.30
2018-01-31T11:30:41.704Z,96998.69
2018-01-31T11:33:10.204Z,96994.09
2018-01-31T11:35:38.787Z,96992.16
2018-01-31T11:38:07.276Z,96971.66
2018-01-31T11:40:35.238Z,96962.45
2018-01-31T11:43:03.820Z,96948.41
2018-01-31T11:45:32.296Z,96934.61
2018-01-31T11:48:00.771Z,96914.94
2018-01-31T11:50:28.284Z,96922.98
2018-01-31T11:52:56.703Z,96920.77
2018-01-31T11:55:24.221Z,96917.81
2018-01-31T11:57:51.754Z,96892.87
2018-01-31T12:00:19.296Z,96876.61
2018-01-31T12:02:47.775Z,96869.17
2018-01-31T12:05:15.713Z,96881.41
2018-01-31T12:07:43.228Z,96886.53
2018-01-31T12:10:11.659Z,96883.87
2018-01-31T12:12:48.173Z,96884.06
2018-01-31T12:15:24.824Z,96861.24
2018-01-31T12:17:52.380Z,96858.59
2018-01-31T12:23:34.465Z,96845.10
2018-01-31T12:26:13.740Z,96821.37
2018-01-31T12:28:48.733Z,96815.87
2018-01-31T12:31:28.172Z,96805.16
2018-01-31T12:34:07.446Z,96815.68
2018-01-31T12:36:46.781Z,96804.47
2018-01-31T12:39:13.780Z,96791.16
2018-01-31T12:41:40.757Z,96797.20
2018-01-31T12:44:07.758Z,96797.44
2018-01-31T12:46:47.220Z,96790.66
2018-01-31T12:49:26.684Z,96798.36
2018-01-31T12:55:05.526Z,96786.80
2018-01-31T13:00:41.145Z,96767.27
2018-01-31T13:03:20.509Z,96775.50
2018-01-31T13:06:00.357Z,96762.64
2018-01-31T13:08:39.738Z,96755.70
2018-01-31T13:11:19.086Z,96753.94
2018-01-31T13:16:59.468Z,96765.63
2018-01-31T13:22:49.733Z,96746.28
2018-01-31T13:25:29.068Z,96755.94
2018-01-31T13:28:14.046Z,96743.41
2018-01-31T13:33:59.520Z,96725.93
2018-01-31T13:36:39.798Z,96712.06
2018-01-31T13:39:19.153Z,96700.23
2018-01-31T13:41:58.623Z,96691.85
2018-01-31T13:44:38.063Z,96684.69
2018-01-31T13:47:17.393Z,96679.53
2018-01-31T13:49:56.684Z,96683.08
2018-01-31T13:52:36.058Z,96682.53
2018-01-31T13:55:15.597Z,96660.41
2018-01-31T13:57:54.987Z,96672.93
2018-01-31T14:03:41.328Z,96664.02
2018-01-31T14:06:20.894Z,96661.25
2018-01-31T14:09:00.308Z,96647.27
2018-01-31T14:14:43.743Z,96621.19
2018-01-31T14:20:34.673Z,96610.38
2018-01-31T14:23:14.126Z,96602.20
2018-01-31T14:25:53.525Z,96592.14
2018-01-31T14:28:32.914Z,96575.12
2018-01-31T14:31:12.349Z,96564.27
2018-01-31T14:33:51.860Z,96552.77
2018-01-31T14:36:18.905Z,96551.12
2018-01-31T14:38:45.885Z,96539.69
2018-01-31T14:41:12.911Z,96534.42
2018-01-31T14:43:39.944Z,96522.42
2018-01-31T14:46:06.913Z,96518.50
2018-01-31T14:48:33.904Z,96503.11
2018-01-31T14:51:00.869Z,96492.09
2018-01-31T14:53:27.867Z,96497.90
2018-01-31T14:55:54.878Z,96495.14
2018-01-31T14:58:21.861Z,96484.86
2018-01-31T15:00:48.865Z,96488.59
2018-01-31T15:03:15.906Z,96491.73
2018-01-31T15:05:43.141Z,96482.09
2018-01-31T15:08:10.109Z,96494.11
2018-01-31T15:10:37.087Z,96493.66
2018-01-31T15:13:04.077Z,96483.28
2018-01-31T15:15:31.053Z,96485.45
2018-01-31T15:17:58.296Z,96472.70
2018-01-31T15:20:25.266Z,96482.92
2018-01-31T15:22:52.288Z,96469.16
2018-01-31T15:25:19.336Z,96475.65
2018-01-31T15:27:46.329Z,96473.21
2018-01-31T15:30:13.614Z,96465.83
2018-01-31T15:32:40.629Z,96459.98
2018-01-31T15:35:07.728Z,96472.67
2018-01-31T15:37:34.775Z,96464.33
2018-01-31T15:40:01.741Z,96463.16
2018-01-31T15:42:29.048Z,96463.57
2018-01-31T15:44:56.019Z,96449.36
2018-01-31T15:47:22.981Z,96453.35
2018-01-31T15:49:50.012Z,96432.13
2018-01-31T15:52:16.981Z,96424.43
2018-01-31T15:54:44.189Z,96415.80
2018-01-31T15:57:11.171Z,96405.15
2018-01-31T15:59:38.132Z,96400.75
2018-01-31T16:02:05.193Z,96391.45
2018-01-31T16:04:32.191Z,96380.20
2018-01-31T16:06:59.317Z,96381.81
2018-01-31T16:09:26.285Z,96393.50
2018-01-31T16:11:53.844Z,96373.63
2018-01-31T16:14:20.912Z,96379.17
2018-01-31T16:16:48.470Z,96363.53
2018-01-31T16:19:27.825Z,96357.99
2018-01-31T16:21:55.379Z,96346.62
2018-01-31T16:24:23.109Z,96341.28
2018-01-31T16:26:50.669Z,96334.02
2018-01-31T16:29:30.196Z,96337.30
2018-01-31T16:32:09.647Z,96327.37
2018-01-31T16:34:37.197Z,96320.55
2018-01-31T16:37:04.749Z,96335.94
2018-01-31T16:39:32.303Z,96323.86
2018-01-31T16:41:59.800Z,96321.03
2018-01-31T16:44:27.312Z,96327.05
2018-01-31T16:46:54.898Z,96318.66
2018-01-31T16:49:22.459Z,96320.13
2018-01-31T16:51:50.019Z,96319.13
2018-01-31T16:54:17.579Z,96328.61
2018-01-31T16:56:45.239Z,96335.33
2018-01-31T16:59:13.005Z,96345.59
2018-01-31T17:01:40.519Z,96369.88
2018-01-31T17:04:08.225Z,96366.47
2018-01-31T17:06:35.781Z,96352.09
2018-01-31T17:09:03.341Z,96361.73
2018-01-31T17:11:30.910Z,96352.41
2018-01-31T17:13:58.459Z,96350.89
2018-01-31T17:16:26.121Z,96356.89
2018-01-31T17:18:53.685Z,96348.27
2018-01-31T17:21:21.238Z,96347.72
2018-01-31T17:23:49.199Z,96341.88
2018-01-31T17:26:21.888Z,96338.75
2018-01-31T17:28:49.650Z,96337.84
2018-01-31T17:31:17.310Z,96349.53
2018-01-31T17:33:44.959Z,96353.91
2018-01-31T17:36:12.527Z,96346.44
2018-01-31T17:38:40.193Z,96342.13
2018-01-31T17:41:08.060Z,96343.06
2018-01-31T17:43:35.618Z,96344.67
2018-01-31T17:46:03.161Z,96348.66
2018-01-31T17:48:30.685Z,96338.83
2018-01-31T17:50:58.270Z,96344.39
2018-01-31T17:53:26.165Z,96333.23
2018-01-31T17:55:53.743Z,96340.01
2018-01-31T17:58:21.383Z,96334.47
2018-01-31T18:00:48.984Z,96330.36
2018-01-31T18:03:16.573Z,96334.81
2018-01-31T18:05:44.236Z,96333.63
2018-01-31T18:08:11.745Z,96338.66
2018-01-31T18:10:39.327Z,96332.59
2018-01-31T18:13:06.888Z,96323.83
2018-01-31T18:15:34.388Z,96313.99
2018-01-31T18:18:02.375Z,96313.06
2018-01-31T18:20:29.929Z,96310.69
2018-01-31T18:22:57.453Z,96299.70
2018-01-31T18:25:24.996Z,96303.81
2018-01-31T18:27:52.502Z,96306.80
2018-01-31T18:30:20.095Z,96303.69
2018-01-31T18:32:47.724Z,96289.86
2018-01-31T18:35:15.283Z,96293.97
2018-01-31T18:37:43.663Z,96294.52
2018-01-31T18:40:11.311Z,96289.69
2018-01-31T18:42:39.296Z,96286.06
2018-01-31T18:45:06.850Z,96284.20
2018-01-31T18:47:34.514Z,96275.30
2018-01-31T18:50:02.174Z,96273.92
2018-01-31T18:52:29.934Z,96271.11
2018-01-31T18:54:57.740Z,96263.75
2018-01-31T18:57:25.275Z,96257.31
2018-01-31T18:59:53.334Z,96256.40
2018-01-31T19:02:21.188Z,96259.34
2018-01-31T19:04:48.831Z,96257.81
2018-01-31T19:07:16.786Z,96260.45
2018-01-31T19:09:44.421Z,96252.78
2018-01-31T19:12:11.985Z,96247.80
2018-01-31T19:14:40.531Z,96248.86
2018-01-31T19:17:09.057Z,96250.59
2018-01-31T19:19:37.389Z,96245.89
2018-01-31T19:22:05.005Z,96247.53
2018-01-31T19:24:33.019Z,96238.14
2018-01-31T19:27:01.765Z,96230.84
2018-01-31T19:29:29.878Z,96227.69
2018-01-31T19:31:57.746Z,96232.09
2018-01-31T19:34:25.740Z,96223.09
2018-01-31T19:36:54.199Z,96228.02
2018-01-31T19:39:22.330Z,96220.42
2018-01-31T19:41:50.335Z,96227.23
2018-01-31T19:44:18.405Z,96219.73
2018-01-31T19:46:46.415Z,96200.14
2018-01-31T19:49:14.281Z,96211.42
2018-01-31T19:51:42.121Z,96209.50
2018-01-31T19:54:10.235Z,96208.34
2018-01-31T19:59:12.266Z,96194.62
2018-01-31T20:01:40.246Z,96202.11
2018-01-31T20:04:07.994Z,96191.56
2018-01-31T20:06:35.964Z,96189.34
2018-01-31T20:09:03.829Z,96179.86
2018-01-31T20:11:31.902Z,96188.39
2018-01-31T20:13:59.674Z,96176.72
2018-01-31T20:16:27.637Z,96177.28
2018-01-31T20:18:55.603Z,96167.98
2018-01-31T20:21:23.574Z,96175.68
2018-01-31T20:23:51.898Z,96168.56
2018-01-31T20:26:19.833Z,96166.76
2018-01-31T20:28:47.698Z,96169.28
2018-01-31T20:31:15.735Z,96159.11
2018-01-31T20:33:43.589Z,96161.22
2018-01-31T20:36:11.587Z,96165.77
2018-01-31T20:38:39.456Z,96152.02
2018-01-31T20:41:08.048Z,96150.98
2018-01-31T20:43:36.008Z,96149.18
2018-01-31T20:46:04.386Z,96147.58
2018-01-31T20:48:32.150Z,96132.17
2018-01-31T20:50:59.811Z,96130.61
2018-01-31T20:53:27.949Z,96135.70
2018-01-31T20:55:55.754Z,96129.55
2018-01-31T20:58:23.616Z,96140.86
2018-01-31T21:00:51.592Z,96131.22
2018-01-31T21:03:19.358Z,96120.95
2018-01-31T21:05:47.112Z,96125.00
2018-01-31T21:08:15.025Z,96126.50
2018-01-31T21:10:42.755Z,96119.89
2018-01-31T21:13:10.508Z,96120.91
2018-01-31T21:15:38.374Z,96115.84
2018-01-31T21:18:06.146Z,96116.78
2018-01-31T21:20:34.038Z,96117.39
2018-01-31T21:23:01.773Z,96109.76
2018-01-31T21:25:29.753Z,96112.58
2018-01-31T21:27:57.606Z,96107.61
2018-01-31T21:30:25.372Z,96102.87
2018-01-31T21:32:53.179Z,96094.53
2018-01-31T21:35:21.963Z,96091.07
2018-01-31T21:37:49.686Z,96079.92
2018-01-31T21:40:17.457Z,96078.41
2018-01-31T21:42:45.108Z,96072.19
2018-01-31T21:45:12.673Z,96070.20
2018-01-31T21:47:41.361Z,96070.13
2018-01-31T21:50:09.429Z,96061.77
2018-01-31T21:52:37.113Z,96051.42
2018-01-31T21:55:04.953Z,96058.63
2018-01-31T22:00:38.164Z,96038.90
2018-01-31T22:03:06.235Z,96035.78
2018-01-31T22:05:34.510Z,96031.02
2018-01-31T22:08:02.275Z,96027.58
2018-01-31T22:10:30.636Z,96020.65
2018-01-31T22:12:58.315Z,96018.80
2018-01-31T22:15:27.638Z,96019.94
2018-01-31T22:17:55.482Z,96013.19
2018-01-31T22:20:23.246Z,96012.98
2018-01-31T22:22:51.112Z,96009.15
2018-01-31T22:25:18.773Z,96001.39
2018-01-31T22:27:46.537Z,96002.88
2018-01-31T22:30:14.096Z,95997.75
2018-01-31T22:32:41.757Z,96001.81
2018-01-31T22:35:09.419Z,95994.53
2018-01-31T22:37:36.979Z,95989.24
2018-01-31T22:40:06.994Z,95980.53
2018-01-31T22:42:34.559Z,95979.69
2018-01-31T22:45:04.587Z,95972.62
2018-01-31T22:47:33.113Z,95976.37
2018-01-31T22:50:00.622Z,95974.52
2018-01-31T22:52:28.581Z,95976.67
2018-01-31T22:54:57.165Z,95972.70
2018-01-31T22:57:24.723Z,95972.62
2018-01-31T22:59:52.223Z,95961.19
2018-01-31T23:02:20.661Z,95962.38
2018-01-31T23:04:48.223Z,95965.78
2018-01-31T23:07:15.720Z,95964.91
2018-01-31T23:09:43.251Z,95961.73
2018-01-31T23:12:16.272Z,95959.55
2018-01-31T23:14:49.849Z,95960.94
2018-01-31T23:17:22.829Z,95958.20
2018-01-31T23:19:50.777Z,95954.53
2018-01-31T23:22:18.268Z,95947.11
2018-01-31T23:24:45.794Z,95951.56
2018-01-31T23:27:13.321Z,95958.42
2018-01-31T23:29:40.821Z,95949.83
2018-01-31T23:32:08.368Z,95949.55
2018-01-31T23:34:35.864Z,95945.42
2018-01-31T23:37:03.385Z,95945.28
2018-01-31T23:39:30.944Z,95946.36
2018-01-31T23:41:58.444Z,95942.76
2018-01-31T23:44:26.369Z,95949.19
2018-01-31T23:46:53.931Z,95943.03
2018-01-31T23:49:21.490Z,95948.97
2018-01-31T23:51:49.049Z,95946.41
2018-01-31T23:54:16.545Z,95941.16
2018-01-31T23:56:44.279Z,95946.68
2018-01-31T23:59:11.828Z,95939.25
